createdAt,value
2024-01-16T00:00:59.915Z,46.03
2024-01-16T00:03:28.397Z,43.13
2024-01-16T00:05:55.371Z,40.08
2024-01-16T00:08:24.941Z,39.03
2024-01-16T00:10:52.209Z,42.00
2024-01-16T00:13:19.148Z,42.03
2024-01-16T00:15:46.129Z,48.13
2024-01-16T00:18:13.269Z,49.70
2024-01-16T00:20:40.451Z,45.90
2024-01-16T00:23:08.575Z,46.30
2024-01-16T00:25:35.667Z,46.30
2024-01-16T00:28:02.880Z,47.42
2024-01-16T00:30:30.783Z,45.58
2024-01-16T00:32:58.027Z,48.88
2024-01-16T00:35:25.128Z,51.33
2024-01-16T00:37:52.252Z,49.47
2024-01-16T00:40:20.574Z,49.30
2024-01-16T00:42:47.544Z,48.72
2024-01-16T00:45:14.546Z,49.25
2024-01-16T00:47:42.703Z,60.95
2024-01-16T00:50:10.571Z,58.80
2024-01-16T00:52:37.625Z,61.95
2024-01-16T00:55:05.559Z,71.60
2024-01-16T00:57:32.515Z,62.40
2024-01-16T00:59:59.602Z,62.60
2024-01-16T01:02:26.649Z,53.70
2024-01-16T01:04:53.605Z,62.50
2024-01-16T01:07:20.578Z,59.40
2024-01-16T01:09:47.465Z,78.50
2024-01-16T01:12:14.397Z,66.95
2024-01-16T01:14:41.725Z,53.58
2024-01-16T01:17:08.777Z,65.68
2024-01-16T01:19:35.790Z,79.63
2024-01-16T01:22:02.807Z,81.35
2024-01-16T01:24:29.807Z,76.78
2024-01-16T01:26:56.733Z,70.05
2024-01-16T01:29:23.756Z,51.80
2024-01-16T01:31:50.739Z,56.30
2024-01-16T01:34:18.040Z,65.13
2024-01-16T01:36:47.487Z,51.25
2024-01-16T01:39:14.423Z,33.72
2024-01-16T01:41:41.537Z,36.03
2024-01-16T01:44:08.742Z,30.38
2024-01-16T01:46:36.317Z,28.42
2024-01-16T01:49:04.132Z,26.02
2024-01-16T01:51:31.378Z,25.30
2024-01-16T01:53:59.873Z,22.45
2024-01-16T01:56:29.912Z,20.92
2024-01-16T01:58:58.031Z,15.90
2024-01-16T02:01:25.460Z,14.80
2024-01-16T02:03:53.535Z,11.80
2024-01-16T02:06:20.556Z,11.02
2024-01-16T02:08:47.793Z,9.20
2024-01-16T02:11:14.849Z,7.03
2024-01-16T02:13:43.088Z,5.95
2024-01-16T02:16:22.899Z,5.28
2024-01-16T02:18:50.441Z,4.97
2024-01-16T02:21:19.607Z,3.72
2024-01-16T02:23:46.662Z,3.90
2024-01-16T02:26:15.831Z,2.92
2024-01-16T02:28:43.227Z,2.30
2024-01-16T02:31:10.205Z,2.30
2024-01-16T02:33:37.265Z,2.45
2024-01-16T02:36:04.309Z,2.17
2024-01-16T02:38:31.236Z,1.55
2024-01-16T02:41:00.848Z,1.58
2024-01-16T02:43:28.100Z,1.42
2024-01-16T02:45:55.039Z,1.10
2024-01-16T02:48:22.078Z,1.45
2024-01-16T02:50:49.484Z,1.40
2024-01-16T02:53:16.834Z,1.25
2024-01-16T02:55:43.924Z,1.08
2024-01-16T02:58:11.188Z,1.08
2024-01-16T03:00:38.605Z,1.40
2024-01-16T03:03:06.252Z,1.23
2024-01-16T03:05:33.317Z,0.98
2024-01-16T03:08:00.495Z,1.00
2024-01-16T03:10:28.702Z,1.10
2024-01-16T03:12:55.615Z,0.90
2024-01-16T03:15:22.536Z,0.90
2024-01-16T03:17:51.191Z,1.23
2024-01-16T03:20:19.738Z,0.90
2024-01-16T03:22:46.732Z,1.00
2024-01-16T03:25:14.252Z,0.80
2024-01-16T03:27:41.182Z,0.90
2024-01-16T03:30:09.673Z,0.93
2024-01-16T03:32:40.173Z,1.00
2024-01-16T03:35:07.885Z,0.90
2024-01-16T03:37:34.953Z,0.75
2024-01-16T03:40:01.916Z,0.70
2024-01-16T03:42:29.025Z,0.82
2024-01-16T03:44:55.983Z,1.13
2024-01-16T03:47:23.014Z,1.10
2024-01-16T03:49:50.207Z,1.40
2024-01-16T03:52:17.126Z,1.23
2024-01-16T03:54:44.112Z,1.85
2024-01-16T03:57:11.023Z,1.38
2024-01-16T03:59:38.984Z,1.67
2024-01-16T04:02:06.104Z,0.82
2024-01-16T04:04:34.261Z,0.95
2024-01-16T04:07:01.256Z,0.80
2024-01-16T04:09:28.272Z,0.90
2024-01-16T04:11:55.254Z,1.00
2024-01-16T04:14:22.640Z,1.00
2024-01-16T04:16:50.152Z,0.90
2024-01-16T04:19:17.236Z,0.70
2024-01-16T04:21:44.268Z,0.80
2024-01-16T04:24:11.222Z,0.70
2024-01-16T04:26:39.300Z,1.00
2024-01-16T04:29:08.902Z,0.80
2024-01-16T04:31:41.053Z,0.77
2024-01-16T04:34:08.319Z,0.70
2024-01-16T04:36:35.262Z,1.00
2024-01-16T04:39:02.312Z,0.80
2024-01-16T04:41:29.670Z,0.80
2024-01-16T04:43:56.644Z,1.00
2024-01-16T04:46:23.596Z,0.80
2024-01-16T04:48:51.416Z,1.20
2024-01-16T04:51:18.424Z,1.10
2024-01-16T04:53:45.446Z,0.90
2024-01-16T04:56:12.417Z,1.00
2024-01-16T04:58:39.431Z,1.00
2024-01-16T05:01:06.808Z,0.90
2024-01-16T05:03:33.798Z,1.20
2024-01-16T05:06:00.916Z,1.45
2024-01-16T05:08:28.081Z,1.30
2024-01-16T05:10:55.053Z,0.98
2024-01-16T05:13:22.482Z,1.70
2024-01-16T05:15:49.973Z,1.30
2024-01-16T05:18:17.053Z,1.27
2024-01-16T05:20:44.195Z,1.30
2024-01-16T05:23:11.227Z,1.60
2024-01-16T05:25:38.940Z,2.25
2024-01-16T05:28:06.041Z,1.60
2024-01-16T05:30:34.015Z,1.60
2024-01-16T05:33:02.378Z,1.20
2024-01-16T05:35:29.515Z,1.50
2024-01-16T05:37:57.181Z,1.55
2024-01-16T05:40:24.173Z,1.60
2024-01-16T05:42:51.680Z,1.73
2024-01-16T05:45:19.196Z,1.33
2024-01-16T05:47:46.164Z,2.17
2024-01-16T05:50:13.425Z,1.90
2024-01-16T05:52:44.333Z,1.70
2024-01-16T05:55:12.472Z,1.60
2024-01-16T05:57:39.448Z,1.75
2024-01-16T06:00:07.107Z,1.33
2024-01-16T06:02:34.170Z,1.45
2024-01-16T06:05:01.129Z,1.55
2024-01-16T06:07:28.115Z,1.60
2024-01-16T06:09:55.049Z,2.35
2024-01-16T06:12:22.259Z,1.95
2024-01-16T06:14:49.883Z,2.20
2024-01-16T06:17:17.060Z,1.85
2024-01-16T06:19:44.031Z,2.60
2024-01-16T06:22:11.345Z,2.90
2024-01-16T06:24:38.575Z,2.88
2024-01-16T06:27:07.003Z,3.10
2024-01-16T06:29:35.685Z,2.83
2024-01-16T06:32:03.149Z,5.32
2024-01-16T06:34:30.468Z,4.30
2024-01-16T06:36:57.618Z,4.20
2024-01-16T06:39:24.583Z,4.45
2024-01-16T06:41:54.462Z,3.53
2024-01-16T06:44:21.607Z,4.00
2024-01-16T06:46:48.552Z,4.07
2024-01-16T06:49:15.561Z,10.80
2024-01-16T06:51:42.693Z,9.73
2024-01-16T06:54:09.685Z,11.18
2024-01-16T06:56:37.865Z,9.23
2024-01-16T06:59:05.931Z,16.67
2024-01-16T07:01:33.399Z,9.18
2024-01-16T07:04:00.401Z,5.43
2024-01-16T07:06:28.163Z,5.05
2024-01-16T07:08:55.165Z,5.40
2024-01-16T07:11:24.951Z,4.53
2024-01-16T07:13:52.549Z,6.03
2024-01-16T07:16:19.462Z,6.57
2024-01-16T07:18:48.331Z,5.38
2024-01-16T07:21:22.525Z,4.90
2024-01-16T07:23:49.684Z,5.75
2024-01-16T07:26:17.847Z,8.27
2024-01-16T07:28:46.199Z,9.80
2024-01-16T07:31:13.218Z,8.35
2024-01-16T07:33:40.374Z,5.15
2024-01-16T07:36:07.843Z,5.93
2024-01-16T07:38:35.029Z,5.10
2024-01-16T07:41:02.028Z,4.50
2024-01-16T07:43:30.343Z,4.63
2024-01-16T07:45:57.245Z,4.68
2024-01-16T07:48:24.323Z,6.22
2024-01-16T07:50:51.862Z,5.60
2024-01-16T07:53:18.919Z,3.92
2024-01-16T07:55:45.862Z,6.97
2024-01-16T07:58:13.236Z,6.63
2024-01-16T08:00:42.152Z,6.55
2024-01-16T08:03:09.774Z,6.03
2024-01-16T08:05:36.914Z,4.07
2024-01-16T08:08:04.195Z,6.82
2024-01-16T08:10:31.153Z,5.05
2024-01-16T08:12:58.160Z,7.00
2024-01-16T08:15:25.078Z,3.95
2024-01-16T08:17:52.401Z,5.25
2024-01-16T08:20:20.755Z,6.18
2024-01-16T08:22:47.726Z,5.05
2024-01-16T08:25:14.631Z,6.55
2024-01-16T08:27:41.749Z,7.28
2024-01-16T08:30:09.116Z,7.97
2024-01-16T08:32:36.312Z,5.82
2024-01-16T08:35:04.133Z,9.93
2024-01-16T08:37:31.641Z,6.25
2024-01-16T08:39:58.611Z,5.03
2024-01-16T08:42:26.583Z,3.95
2024-01-16T08:44:53.532Z,3.20
2024-01-16T08:47:20.619Z,3.95
2024-01-16T08:49:47.793Z,4.53
2024-01-16T08:52:14.789Z,4.05
2024-01-16T08:54:41.753Z,4.85
2024-01-16T08:57:12.904Z,9.93
2024-01-16T08:59:44.068Z,9.48
2024-01-16T09:02:11.662Z,14.52
2024-01-16T09:04:40.877Z,10.65
2024-01-16T09:07:08.181Z,11.88
2024-01-16T09:09:35.744Z,10.70
2024-01-16T09:12:03.874Z,7.40
2024-01-16T09:14:30.854Z,6.25
2024-01-16T09:16:57.816Z,6.22
2024-01-16T09:19:26.647Z,3.97
2024-01-16T09:21:54.484Z,5.47
2024-01-16T09:24:23.896Z,6.80
2024-01-16T09:26:50.958Z,9.82
2024-01-16T09:29:18.073Z,8.27
2024-01-16T09:31:45.145Z,8.35
2024-01-16T09:34:14.443Z,8.18
2024-01-16T09:36:41.693Z,8.30
2024-01-16T09:39:19.566Z,6.97
2024-01-16T09:41:47.202Z,8.70
2024-01-16T09:44:14.721Z,5.90
2024-01-16T09:46:44.911Z,3.65
2024-01-16T09:49:12.698Z,4.28
2024-01-16T09:51:40.000Z,9.00
2024-01-16T09:54:10.204Z,12.55
2024-01-16T09:56:40.722Z,8.40
2024-01-16T09:59:10.022Z,5.10
2024-01-16T10:01:37.497Z,5.22
2024-01-16T10:04:04.535Z,8.30
2024-01-16T10:06:33.228Z,5.20
2024-01-16T10:09:00.425Z,7.53
2024-01-16T10:11:27.666Z,7.88
2024-01-16T10:13:54.760Z,6.78
2024-01-16T10:16:25.182Z,8.27
2024-01-16T10:19:04.845Z,12.00
2024-01-16T10:21:33.576Z,5.72
2024-01-16T10:24:12.045Z,5.03
2024-01-16T10:26:38.972Z,5.20
2024-01-16T10:29:09.563Z,9.65
2024-01-16T10:31:36.772Z,12.83
2024-01-16T10:34:06.159Z,8.95
2024-01-16T10:36:33.186Z,7.78
2024-01-16T10:39:04.543Z,6.18
2024-01-16T10:44:09.036Z,6.53
2024-01-16T10:46:36.341Z,9.27
2024-01-16T10:49:06.373Z,9.32
2024-01-16T10:51:33.755Z,6.53
2024-01-16T10:54:10.794Z,5.47
2024-01-16T10:56:38.919Z,1.83
2024-01-16T10:59:24.442Z,6.90
2024-01-16T11:01:54.514Z,7.05
2024-01-16T11:04:21.839Z,10.88
2024-01-16T11:09:16.740Z,16.63
2024-01-16T11:11:47.278Z,12.82
2024-01-16T11:14:14.521Z,22.83
2024-01-16T11:16:42.996Z,6.47
2024-01-16T11:19:25.253Z,31.33
2024-01-16T11:21:57.999Z,9.88
2024-01-16T11:24:24.954Z,8.18
2024-01-16T11:26:51.960Z,6.25
2024-01-16T11:29:28.170Z,9.20
2024-01-16T11:32:08.720Z,3.60
2024-01-16T11:34:42.775Z,13.15
2024-01-16T11:37:10.959Z,17.15
2024-01-16T11:39:37.937Z,5.35
2024-01-16T11:42:05.114Z,6.30
2024-01-16T11:44:38.925Z,5.07
2024-01-16T11:47:06.160Z,6.65
2024-01-16T11:49:33.318Z,6.78
2024-01-16T11:52:00.520Z,11.05
2024-01-16T11:54:28.072Z,8.73
2024-01-16T11:56:54.994Z,5.15
2024-01-16T11:59:21.899Z,7.38
2024-01-16T12:01:52.853Z,4.82
2024-01-16T12:04:21.782Z,5.68
2024-01-16T12:07:01.660Z,19.33
2024-01-16T12:09:29.258Z,4.25
2024-01-16T12:12:02.421Z,3.97
2024-01-16T12:14:30.113Z,3.80
2024-01-16T12:17:13.052Z,5.32
2024-01-16T12:19:43.937Z,4.90
2024-01-16T12:22:11.715Z,4.88
2024-01-16T12:24:39.203Z,5.43
2024-01-16T12:27:06.797Z,5.07
2024-01-16T12:29:33.832Z,13.45
2024-01-16T12:32:08.135Z,5.93
2024-01-16T12:34:36.574Z,4.28
2024-01-16T12:37:08.074Z,4.30
2024-01-16T12:42:04.063Z,6.10
2024-01-16T12:44:31.224Z,7.70
2024-01-16T12:46:58.711Z,6.18
2024-01-16T12:49:26.139Z,4.05
2024-01-16T12:52:13.265Z,3.20
2024-01-16T12:54:40.266Z,5.30
2024-01-16T12:57:07.485Z,4.47
2024-01-16T12:59:34.526Z,5.07
2024-01-16T13:02:01.833Z,5.80
2024-01-16T13:04:28.754Z,2.78
2024-01-16T13:07:02.843Z,3.47
2024-01-16T13:09:29.883Z,4.63
2024-01-16T13:11:57.480Z,4.30
2024-01-16T13:14:24.998Z,3.35
2024-01-16T13:16:52.597Z,4.15
2024-01-16T13:19:22.563Z,3.88
2024-01-16T13:21:50.399Z,5.35
2024-01-16T13:24:19.297Z,6.15
2024-01-16T13:26:46.489Z,4.00
2024-01-16T13:29:14.201Z,7.57
2024-01-16T13:31:41.425Z,5.93
2024-01-16T13:34:08.701Z,5.38
2024-01-16T13:36:53.438Z,5.05
2024-01-16T13:39:22.678Z,4.47
2024-01-16T13:41:49.862Z,4.57
2024-01-16T13:44:16.943Z,4.65
2024-01-16T13:46:57.057Z,9.23
2024-01-16T13:49:28.990Z,8.90
2024-01-16T13:51:56.020Z,5.90
2024-01-16T13:54:22.968Z,4.05
2024-01-16T13:56:59.653Z,5.03
2024-01-16T13:59:33.490Z,5.40
2024-01-16T14:02:00.623Z,4.82
2024-01-16T14:04:27.627Z,6.05
2024-01-16T14:07:09.830Z,5.38
2024-01-16T14:09:43.300Z,4.32
2024-01-16T14:12:11.334Z,4.40
2024-01-16T14:14:39.848Z,13.27
2024-01-16T14:17:07.087Z,5.28
2024-01-16T14:19:37.086Z,5.38
2024-01-16T14:22:04.205Z,9.32
2024-01-16T14:24:31.308Z,11.95
2024-01-16T14:26:58.659Z,5.25
2024-01-16T14:29:26.858Z,7.47
2024-01-16T14:31:53.945Z,11.20
2024-01-16T14:34:20.895Z,29.40
2024-01-16T14:36:48.082Z,46.03
2024-01-16T14:39:19.164Z,22.35
2024-01-16T14:41:47.491Z,42.40
2024-01-16T14:44:14.998Z,16.98
2024-01-16T14:46:45.199Z,25.92
2024-01-16T14:49:13.109Z,16.70
2024-01-16T14:51:40.193Z,16.80
2024-01-16T14:54:07.224Z,13.73
2024-01-16T14:56:34.746Z,13.45
2024-01-16T14:59:01.894Z,15.23
2024-01-16T15:01:29.029Z,13.35
2024-01-16T15:03:56.030Z,13.65
2024-01-16T15:06:23.600Z,12.30
2024-01-16T15:08:50.792Z,12.25
2024-01-16T15:11:18.661Z,15.25
2024-01-16T15:13:46.161Z,16.83
2024-01-16T15:16:13.282Z,48.80
2024-01-16T15:18:40.440Z,39.60
2024-01-16T15:21:07.876Z,37.03
2024-01-16T15:23:34.987Z,33.85
2024-01-16T15:26:04.463Z,17.05
2024-01-16T15:28:31.667Z,16.85
2024-01-16T15:30:58.985Z,22.83
2024-01-16T15:33:26.338Z,27.92
2024-01-16T15:35:53.617Z,27.45
2024-01-16T15:38:20.753Z,63.25
2024-01-16T15:40:47.706Z,49.97
2024-01-16T15:43:14.627Z,101.90
2024-01-16T15:45:41.960Z,56.88
2024-01-16T15:48:09.393Z,58.58
2024-01-16T15:50:37.346Z,56.72
2024-01-16T15:53:05.996Z,47.08
2024-01-16T15:55:33.109Z,31.08
2024-01-16T15:58:00.390Z,50.83
2024-01-16T16:00:27.670Z,32.67
2024-01-16T16:02:54.762Z,31.75
2024-01-16T16:05:22.011Z,62.30
2024-01-16T16:07:49.833Z,56.15
2024-01-16T16:10:16.840Z,28.65
2024-01-16T16:12:43.860Z,35.53
2024-01-16T16:15:10.950Z,34.42
2024-01-16T16:17:38.174Z,41.05
2024-01-16T16:20:05.740Z,48.67
2024-01-16T16:22:32.823Z,27.90
2024-01-16T16:25:01.447Z,25.90
2024-01-16T16:27:29.981Z,85.03
2024-01-16T16:29:57.765Z,36.65
2024-01-16T16:32:25.302Z,40.13
2024-01-16T16:34:52.646Z,37.10
2024-01-16T16:37:20.241Z,42.88
2024-01-16T16:39:47.191Z,34.22
2024-01-16T16:42:14.724Z,53.58
2024-01-16T16:44:42.442Z,40.72
2024-01-16T16:47:09.777Z,33.65
2024-01-16T16:49:37.921Z,33.33
2024-01-16T16:52:05.414Z,35.00
2024-01-16T16:54:32.550Z,31.17
2024-01-16T16:56:59.617Z,37.55
2024-01-16T16:59:26.698Z,37.50
2024-01-16T17:01:58.259Z,23.70
2024-01-16T17:04:26.129Z,34.72
2024-01-16T17:06:55.915Z,34.75
2024-01-16T17:09:23.031Z,30.55
2024-01-16T17:11:50.000Z,25.63
2024-01-16T17:14:17.272Z,27.10
2024-01-16T17:16:44.753Z,30.15
2024-01-16T17:19:12.435Z,26.95
2024-01-16T17:21:40.164Z,28.63
2024-01-16T17:24:07.599Z,31.02
2024-01-16T17:26:38.629Z,59.33
2024-01-16T17:29:06.151Z,89.35
2024-01-16T17:31:34.144Z,89.85
2024-01-16T17:34:01.406Z,79.60
2024-01-16T17:36:30.163Z,67.80
2024-01-16T17:39:01.496Z,70.55
2024-01-16T17:41:30.970Z,74.18
2024-01-16T17:43:58.500Z,89.07
2024-01-16T17:46:25.462Z,102.22
2024-01-16T17:48:52.675Z,88.63
2024-01-16T17:51:19.999Z,78.57
2024-01-16T17:53:49.261Z,72.20
2024-01-16T17:56:16.902Z,71.00
2024-01-16T17:58:44.686Z,66.22
2024-01-16T18:01:13.163Z,69.18
2024-01-16T18:03:43.377Z,77.97
2024-01-16T18:06:14.342Z,96.03
2024-01-16T18:08:41.932Z,71.82
2024-01-16T18:11:08.958Z,70.07
2024-01-16T18:13:35.910Z,71.47
2024-01-16T18:16:06.236Z,71.40
2024-01-16T18:18:38.770Z,76.47
2024-01-16T18:21:09.158Z,84.75
2024-01-16T18:23:37.090Z,84.27
2024-01-16T18:26:10.041Z,78.75
2024-01-16T18:28:37.100Z,71.93
2024-01-16T18:31:04.718Z,69.22
2024-01-16T18:33:34.411Z,78.43
2024-01-16T18:36:03.636Z,94.90
2024-01-16T18:38:30.843Z,86.22
2024-01-16T18:41:00.621Z,76.50
2024-01-16T18:43:29.172Z,70.28
2024-01-16T18:45:56.211Z,61.67
2024-01-16T18:48:25.739Z,61.42
2024-01-16T18:50:55.888Z,55.45
2024-01-16T18:53:23.183Z,53.25
2024-01-16T18:55:53.366Z,53.22
2024-01-16T18:58:20.840Z,51.20
2024-01-16T19:00:51.618Z,48.95
2024-01-16T19:03:20.158Z,42.45
2024-01-16T19:05:47.552Z,39.67
2024-01-16T19:08:14.668Z,39.17
2024-01-16T19:10:42.798Z,38.40
2024-01-16T19:13:12.389Z,36.72
2024-01-16T19:15:39.661Z,42.42
2024-01-16T19:18:06.902Z,40.30
2024-01-16T19:20:33.997Z,44.60
2024-01-16T19:23:01.004Z,40.60
2024-01-16T19:25:27.990Z,40.58
2024-01-16T19:27:55.976Z,41.63
2024-01-16T19:30:24.109Z,45.17
2024-01-16T19:32:51.367Z,49.97
2024-01-16T19:35:19.113Z,49.17
2024-01-16T19:37:47.227Z,46.45
2024-01-16T19:40:17.735Z,47.78
2024-01-16T19:42:45.117Z,46.10
2024-01-16T19:45:12.947Z,58.05
2024-01-16T19:47:42.001Z,62.00
2024-01-16T19:50:22.982Z,69.68
2024-01-16T19:55:22.881Z,102.53
2024-01-16T19:57:50.873Z,95.35
2024-01-16T20:00:18.437Z,94.68
2024-01-16T20:02:45.897Z,87.47
2024-01-16T20:05:20.263Z,84.70
2024-01-16T20:07:47.603Z,85.05
2024-01-16T20:10:15.448Z,81.65
2024-01-16T20:12:43.533Z,85.75
2024-01-16T20:15:19.735Z,87.07
2024-01-16T20:17:50.043Z,89.28
2024-01-16T20:20:17.235Z,89.15
2024-01-16T20:22:44.747Z,106.90
2024-01-16T20:25:14.047Z,105.88
2024-01-16T20:27:41.658Z,94.95
2024-01-16T20:30:10.047Z,90.78
2024-01-16T20:32:40.563Z,85.28
2024-01-16T20:35:11.133Z,87.40
2024-01-16T20:37:38.127Z,84.77
2024-01-16T20:40:08.381Z,76.38
2024-01-16T20:42:35.437Z,85.55
2024-01-16T20:45:02.502Z,82.32
2024-01-16T20:47:29.939Z,78.55
2024-01-16T20:49:56.983Z,78.78
2024-01-16T20:52:23.902Z,82.25
2024-01-16T20:54:50.815Z,96.85
2024-01-16T20:57:17.850Z,74.57
2024-01-16T20:59:48.936Z,92.15
2024-01-16T21:02:15.893Z,78.18
2024-01-16T21:04:43.750Z,71.70
2024-01-16T21:07:10.899Z,64.45
2024-01-16T21:09:38.026Z,63.78
2024-01-16T21:12:06.107Z,39.35
2024-01-16T21:14:33.393Z,62.25
2024-01-16T21:17:00.458Z,59.90
2024-01-16T21:19:27.525Z,52.15
2024-01-16T21:21:58.403Z,44.42
2024-01-16T21:24:25.432Z,97.95
2024-01-16T21:26:52.422Z,116.25
2024-01-16T21:29:20.021Z,115.63
2024-01-16T21:31:49.058Z,115.32
2024-01-16T21:34:17.840Z,116.38
2024-01-16T21:36:48.403Z,106.03
2024-01-16T21:39:16.347Z,110.75
2024-01-16T21:41:44.317Z,101.95
2024-01-16T21:44:12.128Z,106.10
2024-01-16T21:46:43.847Z,100.43
2024-01-16T21:49:11.734Z,90.68
2024-01-16T21:54:07.064Z,87.88
2024-01-16T21:56:34.860Z,89.28
2024-01-16T21:59:01.965Z,89.38
2024-01-16T22:01:30.060Z,85.30
2024-01-16T22:03:57.566Z,77.35
2024-01-16T22:06:25.270Z,84.80
2024-01-16T22:08:52.817Z,74.68
2024-01-16T22:11:20.643Z,62.08
2024-01-16T22:13:47.730Z,61.67
2024-01-16T22:16:14.857Z,21.70
2024-01-16T22:18:44.265Z,16.95
2024-01-16T22:21:13.056Z,20.27
2024-01-16T22:23:40.277Z,21.48
2024-01-16T22:26:07.821Z,22.80
2024-01-16T22:28:34.785Z,38.45
2024-01-16T22:31:01.802Z,49.25
2024-01-16T22:33:29.182Z,49.78
2024-01-16T22:35:56.291Z,62.47
2024-01-16T22:38:23.332Z,79.00
2024-01-16T22:40:50.377Z,74.65
2024-01-16T22:43:17.393Z,77.00
2024-01-16T22:45:44.699Z,73.97
2024-01-16T22:48:12.829Z,70.75
2024-01-16T22:50:40.666Z,70.25
2024-01-16T22:53:07.803Z,71.10
2024-01-16T22:55:35.171Z,69.45
2024-01-16T22:58:03.946Z,71.95
2024-01-16T23:00:31.663Z,71.72
2024-01-16T23:02:59.079Z,74.18
2024-01-16T23:05:28.517Z,70.95
2024-01-16T23:07:57.855Z,71.25
2024-01-16T23:10:27.064Z,71.05
2024-01-16T23:12:54.026Z,68.32
2024-01-16T23:15:20.971Z,64.68
2024-01-16T23:17:50.981Z,60.25
2024-01-16T23:20:18.033Z,56.67
2024-01-16T23:22:45.017Z,53.42
2024-01-16T23:25:12.227Z,47.53
2024-01-16T23:27:40.142Z,42.90
2024-01-16T23:30:08.431Z,39.30
2024-01-16T23:32:35.752Z,37.20
2024-01-16T23:35:02.855Z,34.95
2024-01-16T23:37:31.545Z,34.47
2024-01-16T23:39:58.966Z,34.53
2024-01-16T23:42:27.139Z,35.53
2024-01-16T23:44:58.986Z,35.00
2024-01-16T23:47:26.214Z,34.63
2024-01-16T23:49:53.255Z,35.10
2024-01-16T23:52:20.375Z,34.25
2024-01-16T23:54:47.503Z,34.28
2024-01-16T23:57:14.494Z,35.20
2024-01-16T23:59:41.917Z,33.08
